sensor_id;sensor_type;location;lat;lon;timestamp;temperature;humidity
34726;DHT22;20951;50.818;4.344;2023-05-19T00:00:17;13.10;99.90
34726;DHT22;20951;50.818;4.344;2023-05-19T00:02:46;13.00;99.90
34726;DHT22;20951;50.818;4.344;2023-05-19T00:05:12;13.10;99.90
34726;DHT22;20951;50.818;4.344;2023-05-19T00:07:40;13.10;99.90
34726;DHT22;20951;50.818;4.344;2023-05-19T00:10:08;13.00;99.90
34726;DHT22;20951;50.818;4.344;2023-05-19T00:12:35;13.10;99.90
34726;DHT22;20951;50.818;4.344;2023-05-19T00:15:02;13.00;99.90
34726;DHT22;20951;50.818;4.344;2023-05-19T00:17:28;12.90;99.90
34726;DHT22;20951;50.818;4.344;2023-05-19T00:19:54;12.90;99.90
34726;DHT22;20951;50.818;4.344;2023-05-19T00:22:19;12.80;99.90
34726;DHT22;20951;50.818;4.344;2023-05-19T00:24:45;12.70;99.90
34726;DHT22;20951;50.818;4.344;2023-05-19T00:27:11;12.70;99.90
34726;DHT22;20951;50.818;4.344;2023-05-19T00:29:36;12.70;99.90
34726;DHT22;20951;50.818;4.344;2023-05-19T00:32:02;12.70;99.90
34726;DHT22;20951;50.818;4.344;2023-05-19T00:34:28;12.70;99.90
34726;DHT22;20951;50.818;4.344;2023-05-19T00:36:54;12.70;99.90
34726;DHT22;20951;50.818;4.344;2023-05-19T00:39:20;12.60;99.90
34726;DHT22;20951;50.818;4.344;2023-05-19T00:41:45;12.60;99.90
34726;DHT22;20951;50.818;4.344;2023-05-19T00:44:11;12.50;99.90
34726;DHT22;20951;50.818;4.344;2023-05-19T00:46:37;12.50;99.90
34726;DHT22;20951;50.818;4.344;2023-05-19T00:49:03;12.60;99.90
34726;DHT22;20951;50.818;4.344;2023-05-19T00:51:28;12.50;99.90
34726;DHT22;20951;50.818;4.344;2023-05-19T00:53:55;12.60;99.90
34726;DHT22;20951;50.818;4.344;2023-05-19T00:56:21;12.50;99.90
34726;DHT22;20951;50.818;4.344;2023-05-19T00:58:52;12.50;99.90
34726;DHT22;20951;50.818;4.344;2023-05-19T01:01:18;12.40;99.90
34726;DHT22;20951;50.818;4.344;2023-05-19T01:03:46;12.50;99.90
34726;DHT22;20951;50.818;4.344;2023-05-19T01:06:12;12.40;99.90
34726;DHT22;20951;50.818;4.344;2023-05-19T01:08:39;12.40;99.90
34726;DHT22;20951;50.818;4.344;2023-05-19T01:11:05;12.40;99.90
34726;DHT22;20951;50.818;4.344;2023-05-19T01:13:32;12.40;99.90
34726;DHT22;20951;50.818;4.344;2023-05-19T01:16:20;12.30;99.90
34726;DHT22;20951;50.818;4.344;2023-05-19T01:18:52;12.30;99.90
34726;DHT22;20951;50.818;4.344;2023-05-19T01:27:03;12.20;99.90
34726;DHT22;20951;50.818;4.344;2023-05-19T01:29:41;12.30;99.90
34726;DHT22;20951;50.818;4.344;2023-05-19T01:32:08;12.20;99.90
34726;DHT22;20951;50.818;4.344;2023-05-19T01:34:41;12.10;99.90
34726;DHT22;20951;50.818;4.344;2023-05-19T01:37:08;12.10;99.90
34726;DHT22;20951;50.818;4.344;2023-05-19T01:39:34;12.10;99.90
34726;DHT22;20951;50.818;4.344;2023-05-19T01:42:01;12.00;99.90
34726;DHT22;20951;50.818;4.344;2023-05-19T01:44:28;12.10;99.90
34726;DHT22;20951;50.818;4.344;2023-05-19T01:46:54;12.10;99.90
34726;DHT22;20951;50.818;4.344;2023-05-19T01:49:20;12.10;99.90
34726;DHT22;20951;50.818;4.344;2023-05-19T01:51:48;12.00;99.90
34726;DHT22;20951;50.818;4.344;2023-05-19T01:54:13;12.00;99.90
34726;DHT22;20951;50.818;4.344;2023-05-19T01:59:38;12.00;99.90
34726;DHT22;20951;50.818;4.344;2023-05-19T02:02:31;11.90;99.90
34726;DHT22;20951;50.818;4.344;2023-05-19T02:05:17;11.90;99.90
34726;DHT22;20951;50.818;4.344;2023-05-19T02:07:54;11.80;99.90
34726;DHT22;20951;50.818;4.344;2023-05-19T02:10:25;11.80;99.90
34726;DHT22;20951;50.818;4.344;2023-05-19T02:12:53;11.70;99.90
34726;DHT22;20951;50.818;4.344;2023-05-19T02:15:23;11.70;99.90
34726;DHT22;20951;50.818;4.344;2023-05-19T02:17:50;11.60;99.90
34726;DHT22;20951;50.818;4.344;2023-05-19T02:20:19;11.70;99.90
34726;DHT22;20951;50.818;4.344;2023-05-19T02:22:47;11.60;99.90
34726;DHT22;20951;50.818;4.344;2023-05-19T02:25:13;11.60;99.90
34726;DHT22;20951;50.818;4.344;2023-05-19T02:27:39;11.70;99.90
34726;DHT22;20951;50.818;4.344;2023-05-19T02:30:07;11.60;99.90
34726;DHT22;20951;50.818;4.344;2023-05-19T02:32:33;11.60;99.90
34726;DHT22;20951;50.818;4.344;2023-05-19T02:35:01;11.60;99.90
34726;DHT22;20951;50.818;4.344;2023-05-19T02:37:27;11.60;99.90
34726;DHT22;20951;50.818;4.344;2023-05-19T02:39:55;11.50;99.90
34726;DHT22;20951;50.818;4.344;2023-05-19T02:42:21;11.50;99.90
34726;DHT22;20951;50.818;4.344;2023-05-19T02:44:47;11.50;99.90
34726;DHT22;20951;50.818;4.344;2023-05-19T02:47:13;11.50;99.90
34726;DHT22;20951;50.818;4.344;2023-05-19T02:49:40;11.50;99.90
34726;DHT22;20951;50.818;4.344;2023-05-19T02:52:07;11.40;99.90
34726;DHT22;20951;50.818;4.344;2023-05-19T02:54:33;11.30;99.90
34726;DHT22;20951;50.818;4.344;2023-05-19T02:56:59;11.30;99.90
34726;DHT22;20951;50.818;4.344;2023-05-19T02:59:25;11.30;99.90
34726;DHT22;20951;50.818;4.344;2023-05-19T03:01:56;11.30;99.90
34726;DHT22;20951;50.818;4.344;2023-05-19T03:04:21;11.20;99.90
34726;DHT22;20951;50.818;4.344;2023-05-19T03:06:47;11.20;99.90
34726;DHT22;20951;50.818;4.344;2023-05-19T03:09:13;11.20;99.90
34726;DHT22;20951;50.818;4.344;2023-05-19T03:11:39;11.30;99.90
34726;DHT22;20951;50.818;4.344;2023-05-19T03:14:06;11.30;99.90
34726;DHT22;20951;50.818;4.344;2023-05-19T03:16:34;11.30;99.90
34726;DHT22;20951;50.818;4.344;2023-05-19T03:19:00;11.20;99.90
34726;DHT22;20951;50.818;4.344;2023-05-19T03:21:25;11.20;99.90
34726;DHT22;20951;50.818;4.344;2023-05-19T03:23:51;11.10;99.90
34726;DHT22;20951;50.818;4.344;2023-05-19T03:26:18;11.20;99.90
34726;DHT22;20951;50.818;4.344;2023-05-19T03:28:44;11.10;99.90
34726;DHT22;20951;50.818;4.344;2023-05-19T03:31:10;11.00;99.90
34726;DHT22;20951;50.818;4.344;2023-05-19T03:33:36;11.10;99.90
34726;DHT22;20951;50.818;4.344;2023-05-19T03:36:01;11.10;99.90
34726;DHT22;20951;50.818;4.344;2023-05-19T03:38:28;11.00;99.90
34726;DHT22;20951;50.818;4.344;2023-05-19T03:40:54;11.00;99.90
34726;DHT22;20951;50.818;4.344;2023-05-19T03:43:19;10.90;99.90
34726;DHT22;20951;50.818;4.344;2023-05-19T03:45:45;10.80;99.90
34726;DHT22;20951;50.818;4.344;2023-05-19T03:48:11;10.80;99.90
34726;DHT22;20951;50.818;4.344;2023-05-19T03:50:37;10.80;99.90
34726;DHT22;20951;50.818;4.344;2023-05-19T03:53:03;10.70;99.90
34726;DHT22;20951;50.818;4.344;2023-05-19T03:55:29;10.60;99.90
34726;DHT22;20951;50.818;4.344;2023-05-19T03:57:55;10.60;99.90
34726;DHT22;20951;50.818;4.344;2023-05-19T04:00:21;10.60;99.90
34726;DHT22;20951;50.818;4.344;2023-05-19T04:02:48;10.60;99.90
34726;DHT22;20951;50.818;4.344;2023-05-19T04:05:14;10.50;99.90
34726;DHT22;20951;50.818;4.344;2023-05-19T04:07:42;10.50;99.90
34726;DHT22;20951;50.818;4.344;2023-05-19T04:10:12;10.50;99.90
34726;DHT22;20951;50.818;4.344;2023-05-19T04:12:38;10.50;99.90
34726;DHT22;20951;50.818;4.344;2023-05-19T04:15:04;10.50;99.90
34726;DHT22;20951;50.818;4.344;2023-05-19T04:17:35;10.50;99.90
34726;DHT22;20951;50.818;4.344;2023-05-19T04:20:01;10.50;99.90
34726;DHT22;20951;50.818;4.344;2023-05-19T04:22:27;10.50;99.90
34726;DHT22;20951;50.818;4.344;2023-05-19T04:24:53;10.50;99.90
34726;DHT22;20951;50.818;4.344;2023-05-19T04:27:19;10.60;99.90
34726;DHT22;20951;50.818;4.344;2023-05-19T04:29:46;10.70;99.90
34726;DHT22;20951;50.818;4.344;2023-05-19T04:32:12;10.70;99.90
34726;DHT22;20951;50.818;4.344;2023-05-19T04:34:42;10.80;99.90
34726;DHT22;20951;50.818;4.344;2023-05-19T04:37:13;10.80;99.90
34726;DHT22;20951;50.818;4.344;2023-05-19T04:39:41;10.80;99.90
34726;DHT22;20951;50.818;4.344;2023-05-19T04:42:08;10.80;99.90
34726;DHT22;20951;50.818;4.344;2023-05-19T04:44:38;10.70;99.90
34726;DHT22;20951;50.818;4.344;2023-05-19T04:47:07;10.70;99.90
34726;DHT22;20951;50.818;4.344;2023-05-19T04:49:34;10.80;99.90
34726;DHT22;20951;50.818;4.344;2023-05-19T04:52:08;10.80;99.90
34726;DHT22;20951;50.818;4.344;2023-05-19T04:54:37;10.70;99.90
34726;DHT22;20951;50.818;4.344;2023-05-19T04:57:03;10.80;99.90
34726;DHT22;20951;50.818;4.344;2023-05-19T04:59:30;10.80;99.90
34726;DHT22;20951;50.818;4.344;2023-05-19T05:01:56;10.90;99.90
34726;DHT22;20951;50.818;4.344;2023-05-19T05:04:23;10.90;99.90
34726;DHT22;20951;50.818;4.344;2023-05-19T05:06:49;11.00;99.90
34726;DHT22;20951;50.818;4.344;2023-05-19T05:09:15;11.10;99.90
34726;DHT22;20951;50.818;4.344;2023-05-19T05:11:41;11.10;99.90
34726;DHT22;20951;50.818;4.344;2023-05-19T05:14:07;11.20;99.90
34726;DHT22;20951;50.818;4.344;2023-05-19T05:16:34;11.20;99.90
34726;DHT22;20951;50.818;4.344;2023-05-19T05:19:00;11.30;99.90
34726;DHT22;20951;50.818;4.344;2023-05-19T05:21:27;11.30;99.90
34726;DHT22;20951;50.818;4.344;2023-05-19T05:23:54;11.30;99.90
34726;DHT22;20951;50.818;4.344;2023-05-19T05:26:20;11.30;99.90
34726;DHT22;20951;50.818;4.344;2023-05-19T05:28:49;11.40;99.90
34726;DHT22;20951;50.818;4.344;2023-05-19T05:31:15;11.50;99.90
34726;DHT22;20951;50.818;4.344;2023-05-19T05:33:43;11.50;99.90
34726;DHT22;20951;50.818;4.344;2023-05-19T05:36:09;11.50;99.90
34726;DHT22;20951;50.818;4.344;2023-05-19T05:38:35;11.60;99.90
34726;DHT22;20951;50.818;4.344;2023-05-19T05:41:01;11.70;99.90
34726;DHT22;20951;50.818;4.344;2023-05-19T05:43:29;11.60;99.90
34726;DHT22;20951;50.818;4.344;2023-05-19T05:46:00;11.70;99.90
34726;DHT22;20951;50.818;4.344;2023-05-19T05:48:28;11.80;99.90
34726;DHT22;20951;50.818;4.344;2023-05-19T05:50:56;11.90;99.90
34726;DHT22;20951;50.818;4.344;2023-05-19T05:53:24;12.10;99.90
34726;DHT22;20951;50.818;4.344;2023-05-19T05:55:51;12.20;99.90
34726;DHT22;20951;50.818;4.344;2023-05-19T05:58:18;12.30;99.90
34726;DHT22;20951;50.818;4.344;2023-05-19T06:00:45;12.50;99.90
34726;DHT22;20951;50.818;4.344;2023-05-19T06:03:12;12.60;99.90
34726;DHT22;20951;50.818;4.344;2023-05-19T06:05:39;12.80;99.90
34726;DHT22;20951;50.818;4.344;2023-05-19T06:08:05;13.50;99.90
34726;DHT22;20951;50.818;4.344;2023-05-19T06:10:31;14.50;99.90
34726;DHT22;20951;50.818;4.344;2023-05-19T06:12:56;16.10;99.90
34726;DHT22;20951;50.818;4.344;2023-05-19T06:15:22;17.60;99.90
34726;DHT22;20951;50.818;4.344;2023-05-19T06:17:48;19.20;99.90
34726;DHT22;20951;50.818;4.344;2023-05-19T06:20:14;20.40;99.90
34726;DHT22;20951;50.818;4.344;2023-05-19T06:22:40;21.70;98.60
34726;DHT22;20951;50.818;4.344;2023-05-19T06:25:06;23.00;95.20
34726;DHT22;20951;50.818;4.344;2023-05-19T06:27:34;24.00;93.20
34726;DHT22;20951;50.818;4.344;2023-05-19T06:30:00;24.60;91.00
34726;DHT22;20951;50.818;4.344;2023-05-19T06:32:25;25.10;89.30
34726;DHT22;20951;50.818;4.344;2023-05-19T06:34:51;25.40;86.30
34726;DHT22;20951;50.818;4.344;2023-05-19T06:37:23;25.50;85.20
34726;DHT22;20951;50.818;4.344;2023-05-19T06:39:52;25.70;84.10
34726;DHT22;20951;50.818;4.344;2023-05-19T06:42:19;26.00;83.80
34726;DHT22;20951;50.818;4.344;2023-05-19T06:44:49;26.80;81.70
34726;DHT22;20951;50.818;4.344;2023-05-19T06:47:15;27.00;79.40
34726;DHT22;20951;50.818;4.344;2023-05-19T06:49:42;26.90;77.80
34726;DHT22;20951;50.818;4.344;2023-05-19T06:52:08;27.30;78.00
34726;DHT22;20951;50.818;4.344;2023-05-19T06:54:34;27.60;77.10
34726;DHT22;20951;50.818;4.344;2023-05-19T06:57:00;27.80;75.50
34726;DHT22;20951;50.818;4.344;2023-05-19T06:59:26;27.40;75.60
34726;DHT22;20951;50.818;4.344;2023-05-19T07:01:52;27.60;75.40
34726;DHT22;20951;50.818;4.344;2023-05-19T07:04:17;27.80;75.40
34726;DHT22;20951;50.818;4.344;2023-05-19T07:06:43;28.20;73.70
34726;DHT22;20951;50.818;4.344;2023-05-19T07:09:09;28.00;73.00
34726;DHT22;20951;50.818;4.344;2023-05-19T07:11:35;27.90;73.30
34726;DHT22;20951;50.818;4.344;2023-05-19T07:14:00;28.10;73.30
34726;DHT22;20951;50.818;4.344;2023-05-19T07:16:26;29.10;72.30
34726;DHT22;20951;50.818;4.344;2023-05-19T07:18:52;29.70;71.10
34726;DHT22;20951;50.818;4.344;2023-05-19T07:21:18;30.00;69.10
34726;DHT22;20951;50.818;4.344;2023-05-19T07:23:44;30.10;68.30
34726;DHT22;20951;50.818;4.344;2023-05-19T07:26:09;29.80;67.90
34726;DHT22;20951;50.818;4.344;2023-05-19T07:28:35;29.90;68.30
34726;DHT22;20951;50.818;4.344;2023-05-19T07:31:01;29.90;67.40
34726;DHT22;20951;50.818;4.344;2023-05-19T07:33:27;30.30;67.50
34726;DHT22;20951;50.818;4.344;2023-05-19T07:35:52;30.40;66.30
34726;DHT22;20951;50.818;4.344;2023-05-19T07:38:18;30.00;66.90
34726;DHT22;20951;50.818;4.344;2023-05-19T07:40:44;29.70;66.60
34726;DHT22;20951;50.818;4.344;2023-05-19T07:43:10;30.00;65.70
34726;DHT22;20951;50.818;4.344;2023-05-19T07:45:37;30.00;66.20
34726;DHT22;20951;50.818;4.344;2023-05-19T07:48:03;30.50;65.60
34726;DHT22;20951;50.818;4.344;2023-05-19T07:50:29;30.90;65.40
34726;DHT22;20951;50.818;4.344;2023-05-19T07:52:55;31.40;63.80
34726;DHT22;20951;50.818;4.344;2023-05-19T07:55:20;31.70;63.00
34726;DHT22;20951;50.818;4.344;2023-05-19T07:57:48;32.20;63.40
34726;DHT22;20951;50.818;4.344;2023-05-19T08:00:15;32.40;62.70
34726;DHT22;20951;50.818;4.344;2023-05-19T08:02:42;31.50;61.60
34726;DHT22;20951;50.818;4.344;2023-05-19T08:05:08;30.60;62.70
34726;DHT22;20951;50.818;4.344;2023-05-19T08:07:35;30.20;63.20
34726;DHT22;20951;50.818;4.344;2023-05-19T08:10:01;30.90;63.50
34726;DHT22;20951;50.818;4.344;2023-05-19T08:12:28;31.00;62.10
34726;DHT22;20951;50.818;4.344;2023-05-19T08:14:54;31.40;62.00
34726;DHT22;20951;50.818;4.344;2023-05-19T08:17:20;31.30;62.10
34726;DHT22;20951;50.818;4.344;2023-05-19T08:19:46;31.10;62.70
34726;DHT22;20951;50.818;4.344;2023-05-19T08:22:12;31.70;61.90
34726;DHT22;20951;50.818;4.344;2023-05-19T08:24:38;32.10;61.60
34726;DHT22;20951;50.818;4.344;2023-05-19T08:27:05;31.70;60.70
34726;DHT22;20951;50.818;4.344;2023-05-19T08:29:31;31.50;60.80
34726;DHT22;20951;50.818;4.344;2023-05-19T08:31:57;32.10;60.90
34726;DHT22;20951;50.818;4.344;2023-05-19T08:34:23;31.90;61.10
34726;DHT22;20951;50.818;4.344;2023-05-19T08:36:49;32.00;60.40
34726;DHT22;20951;50.818;4.344;2023-05-19T08:39:15;32.20;60.20
34726;DHT22;20951;50.818;4.344;2023-05-19T08:41:42;32.30;60.00
34726;DHT22;20951;50.818;4.344;2023-05-19T08:44:09;32.40;60.60
34726;DHT22;20951;50.818;4.344;2023-05-19T08:46:35;32.70;59.90
34726;DHT22;20951;50.818;4.344;2023-05-19T08:49:12;33.20;59.10
34726;DHT22;20951;50.818;4.344;2023-05-19T08:51:45;33.50;58.20
34726;DHT22;20951;50.818;4.344;2023-05-19T08:54:16;33.40;58.10
34726;DHT22;20951;50.818;4.344;2023-05-19T08:56:45;32.40;58.70
34726;DHT22;20951;50.818;4.344;2023-05-19T08:59:13;32.50;58.20
34726;DHT22;20951;50.818;4.344;2023-05-19T09:01:42;32.90;58.00
34726;DHT22;20951;50.818;4.344;2023-05-19T09:04:09;33.40;57.30
34726;DHT22;20951;50.818;4.344;2023-05-19T09:06:35;32.50;56.80
34726;DHT22;20951;50.818;4.344;2023-05-19T09:09:00;32.10;57.70
34726;DHT22;20951;50.818;4.344;2023-05-19T09:11:28;32.70;58.00
34726;DHT22;20951;50.818;4.344;2023-05-19T09:13:54;33.40;56.90
34726;DHT22;20951;50.818;4.344;2023-05-19T09:16:20;33.60;57.80
34726;DHT22;20951;50.818;4.344;2023-05-19T09:18:53;33.80;56.10
34726;DHT22;20951;50.818;4.344;2023-05-19T09:21:32;34.00;55.80
34726;DHT22;20951;50.818;4.344;2023-05-19T09:24:06;33.80;56.10
34726;DHT22;20951;50.818;4.344;2023-05-19T09:26:39;34.00;55.90
34726;DHT22;20951;50.818;4.344;2023-05-19T09:29:15;33.90;56.00
34726;DHT22;20951;50.818;4.344;2023-05-19T09:31:48;34.20;55.60
34726;DHT22;20951;50.818;4.344;2023-05-19T09:34:17;34.50;55.10
34726;DHT22;20951;50.818;4.344;2023-05-19T09:36:45;34.60;55.00
34726;DHT22;20951;50.818;4.344;2023-05-19T09:39:18;33.60;53.80
34726;DHT22;20951;50.818;4.344;2023-05-19T09:41:44;33.20;54.60
34726;DHT22;20951;50.818;4.344;2023-05-19T09:44:29;32.50;55.60
34726;DHT22;20951;50.818;4.344;2023-05-19T09:46:56;32.40;55.30
34726;DHT22;20951;50.818;4.344;2023-05-19T09:49:27;31.70;55.80
34726;DHT22;20951;50.818;4.344;2023-05-19T09:52:03;31.30;56.80
34726;DHT22;20951;50.818;4.344;2023-05-19T09:54:29;31.50;56.80
34726;DHT22;20951;50.818;4.344;2023-05-19T09:57:01;31.10;56.70
34726;DHT22;20951;50.818;4.344;2023-05-19T09:59:30;31.00;56.50
34726;DHT22;20951;50.818;4.344;2023-05-19T10:02:01;30.90;55.50
34726;DHT22;20951;50.818;4.344;2023-05-19T10:04:30;30.90;55.60
34726;DHT22;20951;50.818;4.344;2023-05-19T10:06:58;31.10;56.10
34726;DHT22;20951;50.818;4.344;2023-05-19T10:09:27;30.30;56.00
34726;DHT22;20951;50.818;4.344;2023-05-19T10:11:58;30.30;57.20
34726;DHT22;20951;50.818;4.344;2023-05-19T10:14:28;29.70;57.90
34726;DHT22;20951;50.818;4.344;2023-05-19T10:16:56;30.00;58.10
34726;DHT22;20951;50.818;4.344;2023-05-19T10:19:24;29.90;57.90
34726;DHT22;20951;50.818;4.344;2023-05-19T10:21:53;30.30;57.50
34726;DHT22;20951;50.818;4.344;2023-05-19T10:24:19;30.20;57.10
34726;DHT22;20951;50.818;4.344;2023-05-19T10:26:56;30.20;57.30
34726;DHT22;20951;50.818;4.344;2023-05-19T10:29:27;30.50;57.70
34726;DHT22;20951;50.818;4.344;2023-05-19T10:32:01;31.10;57.60
34726;DHT22;20951;50.818;4.344;2023-05-19T10:37:40;31.40;56.40
34726;DHT22;20951;50.818;4.344;2023-05-19T10:40:29;31.50;56.50
34726;DHT22;20951;50.818;4.344;2023-05-19T10:43:20;30.20;57.10
34726;DHT22;20951;50.818;4.344;2023-05-19T10:45:54;29.10;58.90
34726;DHT22;20951;50.818;4.344;2023-05-19T10:48:25;29.10;59.40
34726;DHT22;20951;50.818;4.344;2023-05-19T10:50:56;29.10;59.20
34726;DHT22;20951;50.818;4.344;2023-05-19T10:53:31;29.40;59.10
34726;DHT22;20951;50.818;4.344;2023-05-19T10:56:03;29.40;58.40
34726;DHT22;20951;50.818;4.344;2023-05-19T11:01:15;29.50;58.20
34726;DHT22;20951;50.818;4.344;2023-05-19T11:06:31;29.90;58.30
34726;DHT22;20951;50.818;4.344;2023-05-19T11:09:19;30.00;57.80
34726;DHT22;20951;50.818;4.344;2023-05-19T11:11:50;30.20;57.80
34726;DHT22;20951;50.818;4.344;2023-05-19T11:14:20;31.10;56.90
34726;DHT22;20951;50.818;4.344;2023-05-19T11:16:55;31.20;56.80
34726;DHT22;20951;50.818;4.344;2023-05-19T11:19:29;31.40;56.70
34726;DHT22;20951;50.818;4.344;2023-05-19T11:22:12;32.20;56.00
34726;DHT22;20951;50.818;4.344;2023-05-19T11:24:47;32.50;55.90
34726;DHT22;20951;50.818;4.344;2023-05-19T11:27:27;31.70;56.80
34726;DHT22;20951;50.818;4.344;2023-05-19T11:32:34;30.50;57.00
34726;DHT22;20951;50.818;4.344;2023-05-19T11:35:01;30.60;57.10
34726;DHT22;20951;50.818;4.344;2023-05-19T11:37:31;30.80;56.70
34726;DHT22;20951;50.818;4.344;2023-05-19T11:39:59;30.80;56.70
34726;DHT22;20951;50.818;4.344;2023-05-19T11:42:25;30.20;57.10
34726;DHT22;20951;50.818;4.344;2023-05-19T11:44:54;30.50;57.30
34726;DHT22;20951;50.818;4.344;2023-05-19T11:47:20;31.10;56.80
34726;DHT22;20951;50.818;4.344;2023-05-19T11:49:50;31.60;55.60
34726;DHT22;20951;50.818;4.344;2023-05-19T11:52:23;31.50;55.30
34726;DHT22;20951;50.818;4.344;2023-05-19T11:54:49;30.50;55.90
34726;DHT22;20951;50.818;4.344;2023-05-19T11:57:15;30.20;56.70
34726;DHT22;20951;50.818;4.344;2023-05-19T11:59:42;30.70;57.10
34726;DHT22;20951;50.818;4.344;2023-05-19T12:04:41;32.00;55.00
34726;DHT22;20951;50.818;4.344;2023-05-19T12:07:06;31.80;55.70
34726;DHT22;20951;50.818;4.344;2023-05-19T12:09:33;32.20;54.30
34726;DHT22;20951;50.818;4.344;2023-05-19T12:12:03;32.40;54.30
34726;DHT22;20951;50.818;4.344;2023-05-19T12:14:33;30.80;55.00
34726;DHT22;20951;50.818;4.344;2023-05-19T12:17:19;29.10;57.20
34726;DHT22;20951;50.818;4.344;2023-05-19T12:19:48;29.40;57.60
34726;DHT22;20951;50.818;4.344;2023-05-19T12:22:18;29.50;56.90
34726;DHT22;20951;50.818;4.344;2023-05-19T12:24:49;30.10;56.10
34726;DHT22;20951;50.818;4.344;2023-05-19T12:27:24;30.50;55.80
34726;DHT22;20951;50.818;4.344;2023-05-19T12:29:54;30.80;56.30
34726;DHT22;20951;50.818;4.344;2023-05-19T12:32:25;31.90;55.70
34726;DHT22;20951;50.818;4.344;2023-05-19T12:34:54;33.60;54.90
34726;DHT22;20951;50.818;4.344;2023-05-19T12:37:21;35.00;53.30
34726;DHT22;20951;50.818;4.344;2023-05-19T12:39:54;35.30;51.70
34726;DHT22;20951;50.818;4.344;2023-05-19T12:42:24;34.70;52.10
34726;DHT22;20951;50.818;4.344;2023-05-19T12:45:00;34.30;52.30
34726;DHT22;20951;50.818;4.344;2023-05-19T12:47:33;34.10;52.80
34726;DHT22;20951;50.818;4.344;2023-05-19T12:50:06;34.00;51.50
34726;DHT22;20951;50.818;4.344;2023-05-19T12:52:43;33.40;52.20
34726;DHT22;20951;50.818;4.344;2023-05-19T12:55:13;34.00;52.50
34726;DHT22;20951;50.818;4.344;2023-05-19T12:57:48;34.50;51.90
34726;DHT22;20951;50.818;4.344;2023-05-19T13:00:19;33.90;51.60
34726;DHT22;20951;50.818;4.344;2023-05-19T13:03:04;31.10;54.60
34726;DHT22;20951;50.818;4.344;2023-05-19T13:05:42;29.50;55.90
34726;DHT22;20951;50.818;4.344;2023-05-19T13:08:13;28.30;57.40
34726;DHT22;20951;50.818;4.344;2023-05-19T13:10:46;29.00;57.90
34726;DHT22;20951;50.818;4.344;2023-05-19T13:13:18;29.20;56.90
34726;DHT22;20951;50.818;4.344;2023-05-19T13:15:48;29.00;56.50
34726;DHT22;20951;50.818;4.344;2023-05-19T13:18:18;28.90;56.80
34726;DHT22;20951;50.818;4.344;2023-05-19T13:20:49;28.70;56.40
34726;DHT22;20951;50.818;4.344;2023-05-19T13:23:21;29.30;56.60
34726;DHT22;20951;50.818;4.344;2023-05-19T13:25:51;29.40;56.60
34726;DHT22;20951;50.818;4.344;2023-05-19T13:28:22;29.70;55.90
34726;DHT22;20951;50.818;4.344;2023-05-19T13:30:53;29.60;56.20
34726;DHT22;20951;50.818;4.344;2023-05-19T13:33:24;29.80;55.50
34726;DHT22;20951;50.818;4.344;2023-05-19T13:35:56;29.10;55.90
34726;DHT22;20951;50.818;4.344;2023-05-19T13:38:27;28.90;57.00
34726;DHT22;20951;50.818;4.344;2023-05-19T13:40:58;28.60;56.40
34726;DHT22;20951;50.818;4.344;2023-05-19T13:43:27;27.90;57.30
34726;DHT22;20951;50.818;4.344;2023-05-19T13:45:56;27.90;57.80
34726;DHT22;20951;50.818;4.344;2023-05-19T13:48:27;27.50;57.30
34726;DHT22;20951;50.818;4.344;2023-05-19T13:50:56;27.80;56.80
34726;DHT22;20951;50.818;4.344;2023-05-19T13:53:25;28.20;57.40
34726;DHT22;20951;50.818;4.344;2023-05-19T13:55:55;28.20;57.60
34726;DHT22;20951;50.818;4.344;2023-05-19T13:58:25;28.00;57.90
34726;DHT22;20951;50.818;4.344;2023-05-19T14:00:55;27.40;58.60
34726;DHT22;20951;50.818;4.344;2023-05-19T14:03:26;26.70;59.10
34726;DHT22;20951;50.818;4.344;2023-05-19T14:05:56;26.20;60.10
34726;DHT22;20951;50.818;4.344;2023-05-19T14:08:24;25.90;60.60
34726;DHT22;20951;50.818;4.344;2023-05-19T14:10:53;25.90;61.40
34726;DHT22;20951;50.818;4.344;2023-05-19T14:13:21;26.20;60.10
34726;DHT22;20951;50.818;4.344;2023-05-19T14:15:50;25.90;59.70
34726;DHT22;20951;50.818;4.344;2023-05-19T14:18:21;25.20;61.00
34726;DHT22;20951;50.818;4.344;2023-05-19T14:20:51;25.20;62.40
34726;DHT22;20951;50.818;4.344;2023-05-19T14:23:22;25.40;62.20
34726;DHT22;20951;50.818;4.344;2023-05-19T14:25:53;25.50;62.50
34726;DHT22;20951;50.818;4.344;2023-05-19T14:28:23;25.60;61.90
34726;DHT22;20951;50.818;4.344;2023-05-19T14:30:52;25.70;61.70
34726;DHT22;20951;50.818;4.344;2023-05-19T14:33:19;25.40;61.20
34726;DHT22;20951;50.818;4.344;2023-05-19T14:35:47;25.40;61.70
34726;DHT22;20951;50.818;4.344;2023-05-19T14:38:18;25.30;62.80
34726;DHT22;20951;50.818;4.344;2023-05-19T14:40:48;25.40;62.40
34726;DHT22;20951;50.818;4.344;2023-05-19T14:43:18;25.20;61.60
34726;DHT22;20951;50.818;4.344;2023-05-19T14:45:48;25.10;62.10
34726;DHT22;20951;50.818;4.344;2023-05-19T14:48:20;24.90;62.40
34726;DHT22;20951;50.818;4.344;2023-05-19T14:50:48;24.60;62.80
34726;DHT22;20951;50.818;4.344;2023-05-19T14:53:15;24.20;64.00
34726;DHT22;20951;50.818;4.344;2023-05-19T14:55:43;23.80;66.10
34726;DHT22;20951;50.818;4.344;2023-05-19T14:58:14;23.80;66.40
34726;DHT22;20951;50.818;4.344;2023-05-19T15:00:46;23.90;65.80
34726;DHT22;20951;50.818;4.344;2023-05-19T15:03:18;24.00;66.30
34726;DHT22;20951;50.818;4.344;2023-05-19T15:05:49;24.00;64.90
34726;DHT22;20951;50.818;4.344;2023-05-19T15:08:20;23.80;64.60
34726;DHT22;20951;50.818;4.344;2023-05-19T15:10:51;23.40;65.40
34726;DHT22;20951;50.818;4.344;2023-05-19T15:13:22;23.20;66.20
34726;DHT22;20951;50.818;4.344;2023-05-19T15:15:53;23.20;66.20
34726;DHT22;20951;50.818;4.344;2023-05-19T15:18:24;23.10;65.50
34726;DHT22;20951;50.818;4.344;2023-05-19T15:20:55;23.10;65.90
34726;DHT22;20951;50.818;4.344;2023-05-19T15:23:26;23.20;66.30
34726;DHT22;20951;50.818;4.344;2023-05-19T15:25:57;23.20;65.80
34726;DHT22;20951;50.818;4.344;2023-05-19T15:28:27;23.20;65.40
34726;DHT22;20951;50.818;4.344;2023-05-19T15:30:58;22.80;65.80
34726;DHT22;20951;50.818;4.344;2023-05-19T15:33:28;22.60;65.80
34726;DHT22;20951;50.818;4.344;2023-05-19T15:35:58;22.40;66.10
34726;DHT22;20951;50.818;4.344;2023-05-19T15:38:28;22.20;67.20
34726;DHT22;20951;50.818;4.344;2023-05-19T15:40:58;22.30;67.50
34726;DHT22;20951;50.818;4.344;2023-05-19T15:43:29;22.20;66.80
34726;DHT22;20951;50.818;4.344;2023-05-19T15:46:01;22.30;67.10
34726;DHT22;20951;50.818;4.344;2023-05-19T15:48:32;22.30;67.00
34726;DHT22;20951;50.818;4.344;2023-05-19T15:51:03;22.40;67.40
34726;DHT22;20951;50.818;4.344;2023-05-19T15:53:34;22.40;66.30
34726;DHT22;20951;50.818;4.344;2023-05-19T15:56:05;22.50;66.70
34726;DHT22;20951;50.818;4.344;2023-05-19T15:58:35;22.50;66.60
34726;DHT22;20951;50.818;4.344;2023-05-19T16:01:05;22.50;66.90